sensor_id;sensor_type;location;lat;lon;timestamp;P1;durP1;ratioP1;P2;durP2;ratioP2
60336;SDS011;46978;50.288;28.624;2022-11-15T00:00:50;14.30;;;8.31;;
60336;SDS011;46978;50.288;28.624;2022-11-15T00:01:52;13.02;;;8.37;;
60336;SDS011;46978;50.288;28.624;2022-11-15T00:02:53;12.69;;;8.32;;
60336;SDS011;46978;50.288;28.624;2022-11-15T00:03:56;12.61;;;8.68;;
60336;SDS011;46978;50.288;28.624;2022-11-15T00:04:57;13.97;;;8.48;;
60336;SDS011;46978;50.288;28.624;2022-11-15T00:06:05;13.31;;;8.56;;
60336;SDS011;46978;50.288;28.624;2022-11-15T00:07:07;14.59;;;8.91;;
60336;SDS011;46978;50.288;28.624;2022-11-15T00:08:09;13.11;;;8.71;;
60336;SDS011;46978;50.288;28.624;2022-11-15T00:09:11;18.93;;;11.03;;
60336;SDS011;46978;50.288;28.624;2022-11-15T00:10:13;15.27;;;9.45;;
60336;SDS011;46978;50.288;28.624;2022-11-15T00:11:15;13.71;;;8.37;;
60336;SDS011;46978;50.288;28.624;2022-11-15T00:12:17;13.59;;;8.17;;
60336;SDS011;46978;50.288;28.624;2022-11-15T00:13:19;21.86;;;10.75;;
60336;SDS011;46978;50.288;28.624;2022-11-15T00:14:21;15.76;;;9.53;;
60336;SDS011;46978;50.288;28.624;2022-11-15T00:15:22;16.09;;;10.39;;
60336;SDS011;46978;50.288;28.624;2022-11-15T00:16:24;17.71;;;10.62;;
60336;SDS011;46978;50.288;28.624;2022-11-15T00:17:26;15.01;;;8.44;;
60336;SDS011;46978;50.288;28.624;2022-11-15T00:18:28;15.66;;;8.65;;
60336;SDS011;46978;50.288;28.624;2022-11-15T00:19:31;15.85;;;9.63;;
60336;SDS011;46978;50.288;28.624;2022-11-15T00:20:35;15.09;;;8.24;;
60336;SDS011;46978;50.288;28.624;2022-11-15T00:21:37;13.98;;;9.08;;
60336;SDS011;46978;50.288;28.624;2022-11-15T00:22:39;16.25;;;9.70;;
60336;SDS011;46978;50.288;28.624;2022-11-15T00:23:41;15.67;;;9.56;;
60336;SDS011;46978;50.288;28.624;2022-11-15T00:24:42;17.41;;;10.08;;
60336;SDS011;46978;50.288;28.624;2022-11-15T00:25:44;18.39;;;9.80;;
60336;SDS011;46978;50.288;28.624;2022-11-15T00:26:46;24.49;;;12.26;;
60336;SDS011;46978;50.288;28.624;2022-11-15T00:27:48;29.47;;;14.99;;
60336;SDS011;46978;50.288;28.624;2022-11-15T00:28:52;33.87;;;16.77;;
60336;SDS011;46978;50.288;28.624;2022-11-15T00:30:01;33.87;;;15.93;;
60336;SDS011;46978;50.288;28.624;2022-11-15T00:31:04;21.45;;;11.51;;
60336;SDS011;46978;50.288;28.624;2022-11-15T00:32:11;22.33;;;11.21;;
60336;SDS011;46978;50.288;28.624;2022-11-15T00:33:13;15.29;;;8.87;;
60336;SDS011;46978;50.288;28.624;2022-11-15T00:34:15;14.15;;;8.93;;
60336;SDS011;46978;50.288;28.624;2022-11-15T00:35:17;13.05;;;8.08;;
60336;SDS011;46978;50.288;28.624;2022-11-15T00:36:19;13.13;;;8.38;;
60336;SDS011;46978;50.288;28.624;2022-11-15T00:37:21;11.59;;;7.91;;
60336;SDS011;46978;50.288;28.624;2022-11-15T00:38:23;13.84;;;8.40;;
60336;SDS011;46978;50.288;28.624;2022-11-15T00:39:24;14.69;;;8.70;;
60336;SDS011;46978;50.288;28.624;2022-11-15T00:40:26;13.63;;;8.47;;
60336;SDS011;46978;50.288;28.624;2022-11-15T00:41:29;12.91;;;7.86;;
60336;SDS011;46978;50.288;28.624;2022-11-15T00:42:31;12.83;;;8.63;;
60336;SDS011;46978;50.288;28.624;2022-11-15T00:43:32;13.30;;;8.59;;
60336;SDS011;46978;50.288;28.624;2022-11-15T00:44:34;12.43;;;8.48;;
60336;SDS011;46978;50.288;28.624;2022-11-15T00:45:36;12.17;;;7.25;;
60336;SDS011;46978;50.288;28.624;2022-11-15T00:46:38;13.87;;;8.48;;
60336;SDS011;46978;50.288;28.624;2022-11-15T00:47:40;14.19;;;8.64;;
60336;SDS011;46978;50.288;28.624;2022-11-15T00:48:43;15.69;;;9.04;;
60336;SDS011;46978;50.288;28.624;2022-11-15T00:49:45;16.59;;;9.73;;
60336;SDS011;46978;50.288;28.624;2022-11-15T00:50:48;17.97;;;9.89;;
60336;SDS011;46978;50.288;28.624;2022-11-15T00:51:50;17.54;;;10.06;;
60336;SDS011;46978;50.288;28.624;2022-11-15T00:52:52;19.41;;;11.76;;
60336;SDS011;46978;50.288;28.624;2022-11-15T00:53:54;17.07;;;9.69;;
60336;SDS011;46978;50.288;28.624;2022-11-15T00:54:56;12.19;;;7.44;;
60336;SDS011;46978;50.288;28.624;2022-11-15T00:55:57;12.31;;;7.43;;
60336;SDS011;46978;50.288;28.624;2022-11-15T00:56:59;11.95;;;7.98;;
60336;SDS011;46978;50.288;28.624;2022-11-15T00:58:01;12.16;;;7.33;;
60336;SDS011;46978;50.288;28.624;2022-11-15T00:59:03;13.38;;;8.17;;
60336;SDS011;46978;50.288;28.624;2022-11-15T01:00:07;14.32;;;7.95;;
60336;SDS011;46978;50.288;28.624;2022-11-15T01:01:10;13.09;;;8.32;;
60336;SDS011;46978;50.288;28.624;2022-11-15T01:02:13;15.29;;;8.75;;
60336;SDS011;46978;50.288;28.624;2022-11-15T01:03:15;13.70;;;8.33;;
60336;SDS011;46978;50.288;28.624;2022-11-15T01:04:16;14.63;;;8.77;;
60336;SDS011;46978;50.288;28.624;2022-11-15T01:05:18;16.26;;;10.01;;
60336;SDS011;46978;50.288;28.624;2022-11-15T01:06:20;15.83;;;8.25;;
60336;SDS011;46978;50.288;28.624;2022-11-15T01:07:22;17.00;;;9.54;;
60336;SDS011;46978;50.288;28.624;2022-11-15T01:08:24;14.77;;;9.07;;
60336;SDS011;46978;50.288;28.624;2022-11-15T01:09:25;12.86;;;8.62;;
60336;SDS011;46978;50.288;28.624;2022-11-15T01:10:27;13.64;;;8.58;;
60336;SDS011;46978;50.288;28.624;2022-11-15T01:11:29;17.76;;;10.32;;
60336;SDS011;46978;50.288;28.624;2022-11-15T01:12:31;16.30;;;9.64;;
60336;SDS011;46978;50.288;28.624;2022-11-15T01:13:33;13.03;;;8.28;;
60336;SDS011;46978;50.288;28.624;2022-11-15T01:14:35;14.35;;;9.25;;
60336;SDS011;46978;50.288;28.624;2022-11-15T01:15:40;13.65;;;8.63;;
60336;SDS011;46978;50.288;28.624;2022-11-15T01:16:42;14.69;;;8.13;;
60336;SDS011;46978;50.288;28.624;2022-11-15T01:17:44;14.27;;;8.29;;
60336;SDS011;46978;50.288;28.624;2022-11-15T01:18:46;16.53;;;9.20;;
60336;SDS011;46978;50.288;28.624;2022-11-15T01:19:48;15.26;;;9.39;;
60336;SDS011;46978;50.288;28.624;2022-11-15T01:20:49;14.43;;;8.71;;
60336;SDS011;46978;50.288;28.624;2022-11-15T01:21:51;14.09;;;8.95;;
60336;SDS011;46978;50.288;28.624;2022-11-15T01:22:53;17.50;;;10.57;;
60336;SDS011;46978;50.288;28.624;2022-11-15T01:23:55;16.69;;;10.35;;
60336;SDS011;46978;50.288;28.624;2022-11-15T01:24:58;16.17;;;9.48;;
60336;SDS011;46978;50.288;28.624;2022-11-15T01:26:00;14.72;;;8.70;;
60336;SDS011;46978;50.288;28.624;2022-11-15T01:27:04;13.82;;;8.48;;
60336;SDS011;46978;50.288;28.624;2022-11-15T01:28:06;15.88;;;8.59;;
60336;SDS011;46978;50.288;28.624;2022-11-15T01:29:08;13.43;;;8.39;;
60336;SDS011;46978;50.288;28.624;2022-11-15T01:30:10;12.63;;;7.79;;
60336;SDS011;46978;50.288;28.624;2022-11-15T01:31:14;12.16;;;7.77;;
60336;SDS011;46978;50.288;28.624;2022-11-15T01:32:18;12.16;;;7.72;;
60336;SDS011;46978;50.288;28.624;2022-11-15T01:33:20;13.55;;;7.84;;
60336;SDS011;46978;50.288;28.624;2022-11-15T01:34:22;13.63;;;8.24;;
60336;SDS011;46978;50.288;28.624;2022-11-15T01:35:23;12.45;;;8.17;;
60336;SDS011;46978;50.288;28.624;2022-11-15T01:36:25;13.12;;;8.59;;
60336;SDS011;46978;50.288;28.624;2022-11-15T01:37:27;13.02;;;8.21;;
60336;SDS011;46978;50.288;28.624;2022-11-15T01:38:29;12.04;;;7.79;;
60336;SDS011;46978;50.288;28.624;2022-11-15T01:39:30;11.51;;;7.33;;
60336;SDS011;46978;50.288;28.624;2022-11-15T01:40:32;12.35;;;7.41;;
60336;SDS011;46978;50.288;28.624;2022-11-15T01:41:34;11.11;;;7.49;;
60336;SDS011;46978;50.288;28.624;2022-11-15T01:42:36;11.54;;;7.58;;
60336;SDS011;46978;50.288;28.624;2022-11-15T01:43:39;11.63;;;7.09;;
60336;SDS011;46978;50.288;28.624;2022-11-15T01:44:49;12.50;;;8.29;;
60336;SDS011;46978;50.288;28.624;2022-11-15T01:45:52;14.09;;;7.91;;
60336;SDS011;46978;50.288;28.624;2022-11-15T01:46:57;13.13;;;8.12;;
60336;SDS011;46978;50.288;28.624;2022-11-15T01:48:03;16.34;;;9.19;;
60336;SDS011;46978;50.288;28.624;2022-11-15T01:49:05;12.23;;;7.79;;
60336;SDS011;46978;50.288;28.624;2022-11-15T01:50:12;13.82;;;8.37;;
60336;SDS011;46978;50.288;28.624;2022-11-15T01:51:16;13.66;;;8.99;;
60336;SDS011;46978;50.288;28.624;2022-11-15T01:52:20;12.96;;;8.21;;
60336;SDS011;46978;50.288;28.624;2022-11-15T01:53:25;14.09;;;8.08;;
60336;SDS011;46978;50.288;28.624;2022-11-15T01:54:27;13.21;;;8.31;;
60336;SDS011;46978;50.288;28.624;2022-11-15T01:55:30;11.95;;;7.62;;
60336;SDS011;46978;50.288;28.624;2022-11-15T01:56:32;13.79;;;7.55;;
60336;SDS011;46978;50.288;28.624;2022-11-15T01:57:37;11.56;;;7.29;;
60336;SDS011;46978;50.288;28.624;2022-11-15T01:58:41;10.18;;;6.77;;
60336;SDS011;46978;50.288;28.624;2022-11-15T01:59:45;11.86;;;6.76;;
60336;SDS011;46978;50.288;28.624;2022-11-15T02:00:48;12.37;;;6.93;;
60336;SDS011;46978;50.288;28.624;2022-11-15T02:01:51;11.14;;;6.56;;
60336;SDS011;46978;50.288;28.624;2022-11-15T02:02:53;11.43;;;6.61;;
60336;SDS011;46978;50.288;28.624;2022-11-15T02:03:59;11.73;;;6.86;;
60336;SDS011;46978;50.288;28.624;2022-11-15T02:05:12;10.89;;;6.58;;
60336;SDS011;46978;50.288;28.624;2022-11-15T02:06:14;11.95;;;6.91;;
60336;SDS011;46978;50.288;28.624;2022-11-15T02:07:17;11.50;;;7.11;;
60336;SDS011;46978;50.288;28.624;2022-11-15T02:08:21;11.88;;;7.22;;
60336;SDS011;46978;50.288;28.624;2022-11-15T02:09:22;12.49;;;7.05;;
60336;SDS011;46978;50.288;28.624;2022-11-15T02:10:24;10.05;;;7.17;;
60336;SDS011;46978;50.288;28.624;2022-11-15T02:11:26;11.03;;;7.12;;
60336;SDS011;46978;50.288;28.624;2022-11-15T02:12:28;12.13;;;7.34;;
60336;SDS011;46978;50.288;28.624;2022-11-15T02:13:30;11.91;;;7.71;;
60336;SDS011;46978;50.288;28.624;2022-11-15T02:14:32;13.99;;;8.37;;
60336;SDS011;46978;50.288;28.624;2022-11-15T02:15:38;12.12;;;8.12;;
60336;SDS011;46978;50.288;28.624;2022-11-15T02:16:51;12.86;;;7.99;;
60336;SDS011;46978;50.288;28.624;2022-11-15T02:20:42;12.81;;;6.98;;
60336;SDS011;46978;50.288;28.624;2022-11-15T02:25:01;13.11;;;7.44;;
60336;SDS011;46978;50.288;28.624;2022-11-15T02:33:09;12.74;;;8.21;;
60336;SDS011;46978;50.288;28.624;2022-11-15T02:34:35;14.18;;;8.05;;
60336;SDS011;46978;50.288;28.624;2022-11-15T02:35:48;13.54;;;8.17;;
60336;SDS011;46978;50.288;28.624;2022-11-15T02:40:58;16.51;;;8.58;;
60336;SDS011;46978;50.288;28.624;2022-11-15T02:42:17;17.34;;;9.11;;
60336;SDS011;46978;50.288;28.624;2022-11-15T02:43:36;14.83;;;8.57;;
60336;SDS011;46978;50.288;28.624;2022-11-15T02:44:38;16.58;;;9.24;;
60336;SDS011;46978;50.288;28.624;2022-11-15T02:45:45;14.64;;;8.61;;
60336;SDS011;46978;50.288;28.624;2022-11-15T02:46:52;14.90;;;8.63;;
60336;SDS011;46978;50.288;28.624;2022-11-15T02:48:02;15.87;;;8.16;;
60336;SDS011;46978;50.288;28.624;2022-11-15T02:49:07;14.99;;;8.62;;
60336;SDS011;46978;50.288;28.624;2022-11-15T02:50:11;14.51;;;8.17;;
60336;SDS011;46978;50.288;28.624;2022-11-15T02:51:15;15.50;;;8.03;;
60336;SDS011;46978;50.288;28.624;2022-11-15T02:52:22;13.04;;;7.95;;
60336;SDS011;46978;50.288;28.624;2022-11-15T02:53:25;14.14;;;8.39;;
60336;SDS011;46978;50.288;28.624;2022-11-15T02:54:32;15.15;;;8.46;;
60336;SDS011;46978;50.288;28.624;2022-11-15T02:55:36;13.96;;;8.53;;
60336;SDS011;46978;50.288;28.624;2022-11-15T02:56:40;13.24;;;7.55;;
60336;SDS011;46978;50.288;28.624;2022-11-15T02:57:45;15.15;;;8.66;;
60336;SDS011;46978;50.288;28.624;2022-11-15T02:59:01;15.39;;;8.49;;
60336;SDS011;46978;50.288;28.624;2022-11-15T03:00:14;16.97;;;8.97;;
60336;SDS011;46978;50.288;28.624;2022-11-15T03:01:22;15.01;;;8.48;;
60336;SDS011;46978;50.288;28.624;2022-11-15T03:04:26;13.60;;;7.88;;
60336;SDS011;46978;50.288;28.624;2022-11-15T03:06:01;16.08;;;8.28;;
60336;SDS011;46978;50.288;28.624;2022-11-15T03:07:11;14.70;;;8.71;;
60336;SDS011;46978;50.288;28.624;2022-11-15T03:08:29;14.45;;;8.45;;
60336;SDS011;46978;50.288;28.624;2022-11-15T03:09:46;19.23;;;10.23;;
60336;SDS011;46978;50.288;28.624;2022-11-15T03:11:08;19.06;;;10.77;;
60336;SDS011;46978;50.288;28.624;2022-11-15T03:13:49;17.94;;;9.31;;
60336;SDS011;46978;50.288;28.624;2022-11-15T03:15:00;16.97;;;9.63;;
60336;SDS011;46978;50.288;28.624;2022-11-15T03:18:36;18.67;;;10.92;;
60336;SDS011;46978;50.288;28.624;2022-11-15T03:19:44;18.63;;;10.87;;
60336;SDS011;46978;50.288;28.624;2022-11-15T03:20:48;18.84;;;10.88;;
60336;SDS011;46978;50.288;28.624;2022-11-15T03:21:52;20.26;;;10.95;;
60336;SDS011;46978;50.288;28.624;2022-11-15T03:22:57;19.70;;;11.58;;
60336;SDS011;46978;50.288;28.624;2022-11-15T03:24:02;19.33;;;10.59;;
60336;SDS011;46978;50.288;28.624;2022-11-15T03:25:07;19.94;;;11.81;;
60336;SDS011;46978;50.288;28.624;2022-11-15T03:26:12;19.37;;;12.04;;
60336;SDS011;46978;50.288;28.624;2022-11-15T03:27:17;20.94;;;12.32;;
60336;SDS011;46978;50.288;28.624;2022-11-15T03:28:23;22.33;;;12.79;;
60336;SDS011;46978;50.288;28.624;2022-11-15T03:29:35;21.65;;;13.48;;
60336;SDS011;46978;50.288;28.624;2022-11-15T03:30:39;23.25;;;13.24;;
60336;SDS011;46978;50.288;28.624;2022-11-15T03:31:44;21.33;;;12.13;;
60336;SDS011;46978;50.288;28.624;2022-11-15T03:32:48;21.83;;;13.07;;
60336;SDS011;46978;50.288;28.624;2022-11-15T03:33:55;24.41;;;12.98;;
60336;SDS011;46978;50.288;28.624;2022-11-15T03:35:01;23.36;;;13.02;;
60336;SDS011;46978;50.288;28.624;2022-11-15T03:36:09;22.21;;;12.42;;
60336;SDS011;46978;50.288;28.624;2022-11-15T03:37:11;20.36;;;12.60;;
60336;SDS011;46978;50.288;28.624;2022-11-15T03:38:22;21.49;;;13.11;;
60336;SDS011;46978;50.288;28.624;2022-11-15T03:39:26;21.97;;;12.35;;
60336;SDS011;46978;50.288;28.624;2022-11-15T03:40:40;22.04;;;12.99;;
60336;SDS011;46978;50.288;28.624;2022-11-15T03:43:15;21.31;;;12.48;;
60336;SDS011;46978;50.288;28.624;2022-11-15T03:46:00;22.83;;;13.12;;
60336;SDS011;46978;50.288;28.624;2022-11-15T03:47:14;21.26;;;12.76;;
60336;SDS011;46978;50.288;28.624;2022-11-15T03:48:40;23.36;;;13.37;;
60336;SDS011;46978;50.288;28.624;2022-11-15T03:49:55;22.23;;;13.19;;
60336;SDS011;46978;50.288;28.624;2022-11-15T03:50:59;23.25;;;13.72;;
60336;SDS011;46978;50.288;28.624;2022-11-15T03:52:01;23.33;;;13.71;;
60336;SDS011;46978;50.288;28.624;2022-11-15T03:53:05;25.27;;;14.20;;
60336;SDS011;46978;50.288;28.624;2022-11-15T03:54:07;29.08;;;15.79;;
60336;SDS011;46978;50.288;28.624;2022-11-15T03:55:10;44.71;;;20.05;;
60336;SDS011;46978;50.288;28.624;2022-11-15T03:56:14;35.31;;;18.62;;
60336;SDS011;46978;50.288;28.624;2022-11-15T03:57:16;35.83;;;17.62;;
60336;SDS011;46978;50.288;28.624;2022-11-15T03:58:18;36.65;;;18.83;;
60336;SDS011;46978;50.288;28.624;2022-11-15T03:59:19;30.45;;;16.43;;
60336;SDS011;46978;50.288;28.624;2022-11-15T04:00:21;29.29;;;16.34;;
60336;SDS011;46978;50.288;28.624;2022-11-15T04:01:23;31.94;;;17.65;;
60336;SDS011;46978;50.288;28.624;2022-11-15T04:02:25;32.83;;;18.12;;
60336;SDS011;46978;50.288;28.624;2022-11-15T04:03:27;28.17;;;16.99;;
60336;SDS011;46978;50.288;28.624;2022-11-15T04:04:29;25.01;;;14.93;;
60336;SDS011;46978;50.288;28.624;2022-11-15T04:05:31;24.89;;;14.01;;
60336;SDS011;46978;50.288;28.624;2022-11-15T04:06:33;27.49;;;15.47;;
60336;SDS011;46978;50.288;28.624;2022-11-15T04:07:35;33.00;;;18.11;;
60336;SDS011;46978;50.288;28.624;2022-11-15T04:08:37;31.59;;;17.19;;
60336;SDS011;46978;50.288;28.624;2022-11-15T04:09:38;30.09;;;17.18;;
60336;SDS011;46978;50.288;28.624;2022-11-15T04:10:40;29.39;;;15.95;;
60336;SDS011;46978;50.288;28.624;2022-11-15T04:11:42;29.51;;;15.59;;
60336;SDS011;46978;50.288;28.624;2022-11-15T04:12:44;33.05;;;16.33;;
60336;SDS011;46978;50.288;28.624;2022-11-15T04:13:47;29.65;;;17.07;;
60336;SDS011;46978;50.288;28.624;2022-11-15T04:14:49;29.11;;;15.43;;
60336;SDS011;46978;50.288;28.624;2022-11-15T04:15:51;27.62;;;15.51;;
60336;SDS011;46978;50.288;28.624;2022-11-15T04:16:53;30.73;;;16.73;;
60336;SDS011;46978;50.288;28.624;2022-11-15T04:17:55;29.37;;;16.29;;
60336;SDS011;46978;50.288;28.624;2022-11-15T04:18:58;30.02;;;15.91;;
60336;SDS011;46978;50.288;28.624;2022-11-15T04:19:59;28.31;;;16.14;;
60336;SDS011;46978;50.288;28.624;2022-11-15T04:21:01;30.54;;;16.49;;
60336;SDS011;46978;50.288;28.624;2022-11-15T04:22:03;35.64;;;18.41;;
60336;SDS011;46978;50.288;28.624;2022-11-15T04:23:12;40.31;;;20.45;;
60336;SDS011;46978;50.288;28.624;2022-11-15T04:24:16;37.19;;;19.48;;
60336;SDS011;46978;50.288;28.624;2022-11-15T04:25:18;39.80;;;20.10;;
60336;SDS011;46978;50.288;28.624;2022-11-15T04:26:20;40.51;;;19.73;;
60336;SDS011;46978;50.288;28.624;2022-11-15T04:27:24;42.35;;;20.59;;
60336;SDS011;46978;50.288;28.624;2022-11-15T04:28:25;40.81;;;19.22;;
60336;SDS011;46978;50.288;28.624;2022-11-15T04:29:27;34.20;;;18.00;;
60336;SDS011;46978;50.288;28.624;2022-11-15T04:30:29;34.35;;;18.36;;
60336;SDS011;46978;50.288;28.624;2022-11-15T04:31:31;34.69;;;18.24;;
60336;SDS011;46978;50.288;28.624;2022-11-15T04:32:33;34.29;;;18.30;;
60336;SDS011;46978;50.288;28.624;2022-11-15T04:33:34;35.56;;;18.71;;
60336;SDS011;46978;50.288;28.624;2022-11-15T04:34:36;38.13;;;19.22;;
60336;SDS011;46978;50.288;28.624;2022-11-15T04:35:38;35.83;;;18.59;;
60336;SDS011;46978;50.288;28.624;2022-11-15T04:36:40;33.72;;;18.60;;
60336;SDS011;46978;50.288;28.624;2022-11-15T04:37:41;36.54;;;18.73;;
60336;SDS011;46978;50.288;28.624;2022-11-15T04:38:43;33.34;;;18.09;;
60336;SDS011;46978;50.288;28.624;2022-11-15T04:39:45;36.30;;;19.01;;
60336;SDS011;46978;50.288;28.624;2022-11-15T04:40:46;31.33;;;17.96;;
60336;SDS011;46978;50.288;28.624;2022-11-15T04:41:48;31.92;;;17.55;;
60336;SDS011;46978;50.288;28.624;2022-11-15T04:42:50;35.58;;;18.67;;
60336;SDS011;46978;50.288;28.624;2022-11-15T04:43:52;36.97;;;19.41;;
60336;SDS011;46978;50.288;28.624;2022-11-15T04:44:54;37.24;;;19.20;;
60336;SDS011;46978;50.288;28.624;2022-11-15T04:45:55;33.74;;;18.32;;
60336;SDS011;46978;50.288;28.624;2022-11-15T04:46:57;34.07;;;18.75;;
60336;SDS011;46978;50.288;28.624;2022-11-15T04:47:59;33.36;;;18.56;;
60336;SDS011;46978;50.288;28.624;2022-11-15T04:49:01;34.62;;;18.84;;
60336;SDS011;46978;50.288;28.624;2022-11-15T04:50:06;38.71;;;19.98;;
60336;SDS011;46978;50.288;28.624;2022-11-15T04:51:08;38.29;;;19.73;;
60336;SDS011;46978;50.288;28.624;2022-11-15T04:52:10;34.01;;;18.43;;
60336;SDS011;46978;50.288;28.624;2022-11-15T04:53:12;36.61;;;19.76;;
60336;SDS011;46978;50.288;28.624;2022-11-15T04:54:14;40.99;;;20.07;;
60336;SDS011;46978;50.288;28.624;2022-11-15T04:55:15;40.34;;;21.19;;
60336;SDS011;46978;50.288;28.624;2022-11-15T04:56:17;38.35;;;19.63;;
60336;SDS011;46978;50.288;28.624;2022-11-15T04:57:20;37.59;;;20.76;;
60336;SDS011;46978;50.288;28.624;2022-11-15T04:58:21;38.91;;;19.35;;
60336;SDS011;46978;50.288;28.624;2022-11-15T04:59:23;38.64;;;20.61;;
60336;SDS011;46978;50.288;28.624;2022-11-15T05:00:25;38.17;;;19.28;;
60336;SDS011;46978;50.288;28.624;2022-11-15T05:01:28;39.41;;;19.55;;
60336;SDS011;46978;50.288;28.624;2022-11-15T05:02:29;43.75;;;22.67;;
60336;SDS011;46978;50.288;28.624;2022-11-15T05:03:31;40.99;;;21.05;;
60336;SDS011;46978;50.288;28.624;2022-11-15T05:04:33;37.90;;;19.61;;
60336;SDS011;46978;50.288;28.624;2022-11-15T05:05:34;36.84;;;18.96;;
60336;SDS011;46978;50.288;28.624;2022-11-15T05:06:37;37.53;;;19.27;;
60336;SDS011;46978;50.288;28.624;2022-11-15T05:07:38;41.22;;;19.56;;
60336;SDS011;46978;50.288;28.624;2022-11-15T05:08:40;35.59;;;19.47;;
60336;SDS011;46978;50.288;28.624;2022-11-15T05:09:42;35.03;;;19.48;;
60336;SDS011;46978;50.288;28.624;2022-11-15T05:10:43;40.03;;;20.99;;
60336;SDS011;46978;50.288;28.624;2022-11-15T05:11:45;39.65;;;20.85;;
60336;SDS011;46978;50.288;28.624;2022-11-15T05:12:47;37.95;;;19.45;;
60336;SDS011;46978;50.288;28.624;2022-11-15T05:13:49;39.16;;;20.42;;
60336;SDS011;46978;50.288;28.624;2022-11-15T05:14:51;40.71;;;21.19;;
60336;SDS011;46978;50.288;28.624;2022-11-15T05:15:53;49.69;;;23.78;;
60336;SDS011;46978;50.288;28.624;2022-11-15T05:16:54;46.51;;;22.92;;
60336;SDS011;46978;50.288;28.624;2022-11-15T05:17:59;42.39;;;21.21;;
60336;SDS011;46978;50.288;28.624;2022-11-15T05:19:01;37.46;;;19.66;;
60336;SDS011;46978;50.288;28.624;2022-11-15T05:20:04;38.71;;;19.51;;
60336;SDS011;46978;50.288;28.624;2022-11-15T05:21:06;38.53;;;20.47;;
60336;SDS011;46978;50.288;28.624;2022-11-15T05:22:10;40.14;;;20.65;;
60336;SDS011;46978;50.288;28.624;2022-11-15T05:23:12;40.63;;;20.44;;
60336;SDS011;46978;50.288;28.624;2022-11-15T05:24:14;41.04;;;20.03;;
60336;SDS011;46978;50.288;28.624;2022-11-15T05:25:16;42.91;;;21.95;;
60336;SDS011;46978;50.288;28.624;2022-11-15T05:26:18;39.35;;;20.10;;
60336;SDS011;46978;50.288;28.624;2022-11-15T05:27:20;46.14;;;22.28;;
60336;SDS011;46978;50.288;28.624;2022-11-15T05:28:21;44.02;;;21.95;;
60336;SDS011;46978;50.288;28.624;2022-11-15T05:29:23;40.99;;;20.03;;
60336;SDS011;46978;50.288;28.624;2022-11-15T05:30:25;41.24;;;20.67;;
60336;SDS011;46978;50.288;28.624;2022-11-15T05:31:27;41.59;;;20.96;;
60336;SDS011;46978;50.288;28.624;2022-11-15T05:32:29;41.55;;;21.23;;
60336;SDS011;46978;50.288;28.624;2022-11-15T05:33:31;44.14;;;21.66;;
60336;SDS011;46978;50.288;28.624;2022-11-15T05:34:34;39.34;;;20.27;;
60336;SDS011;46978;50.288;28.624;2022-11-15T05:35:40;39.66;;;20.06;;
60336;SDS011;46978;50.288;28.624;2022-11-15T05:36:44;39.49;;;20.17;;
60336;SDS011;46978;50.288;28.624;2022-11-15T05:37:46;38.01;;;20.01;;
60336;SDS011;46978;50.288;28.624;2022-11-15T05:38:47;43.64;;;20.58;;
60336;SDS011;46978;50.288;28.624;2022-11-15T05:39:50;40.62;;;21.02;;
60336;SDS011;46978;50.288;28.624;2022-11-15T05:40:51;39.72;;;20.14;;
60336;SDS011;46978;50.288;28.624;2022-11-15T05:41:54;37.27;;;20.52;;
60336;SDS011;46978;50.288;28.624;2022-11-15T05:42:59;38.55;;;20.07;;
60336;SDS011;46978;50.288;28.624;2022-11-15T05:44:03;40.28;;;20.74;;
60336;SDS011;46978;50.288;28.624;2022-11-15T05:45:08;43.66;;;21.43;;
60336;SDS011;46978;50.288;28.624;2022-11-15T05:46:12;47.61;;;22.39;;
60336;SDS011;46978;50.288;28.624;2022-11-15T05:47:21;47.70;;;23.54;;
60336;SDS011;46978;50.288;28.624;2022-11-15T05:48:25;49.82;;;24.83;;
60336;SDS011;46978;50.288;28.624;2022-11-15T05:49:29;52.87;;;25.49;;
60336;SDS011;46978;50.288;28.624;2022-11-15T05:50:32;47.24;;;23.56;;
60336;SDS011;46978;50.288;28.624;2022-11-15T05:51:36;44.02;;;22.11;;
60336;SDS011;46978;50.288;28.624;2022-11-15T05:52:38;47.47;;;24.48;;
60336;SDS011;46978;50.288;28.624;2022-11-15T05:53:40;50.97;;;24.58;;
60336;SDS011;46978;50.288;28.624;2022-11-15T05:54:42;52.87;;;25.39;;
60336;SDS011;46978;50.288;28.624;2022-11-15T05:55:45;54.93;;;25.21;;
60336;SDS011;46978;50.288;28.624;2022-11-15T05:56:47;54.67;;;24.94;;
60336;SDS011;46978;50.288;28.624;2022-11-15T05:57:49;50.33;;;24.93;;
60336;SDS011;46978;50.288;28.624;2022-11-15T05:58:52;49.71;;;24.85;;
60336;SDS011;46978;50.288;28.624;2022-11-15T05:59:56;50.07;;;23.33;;
60336;SDS011;46978;50.288;28.624;2022-11-15T06:00:58;54.95;;;24.19;;
60336;SDS011;46978;50.288;28.624;2022-11-15T06:02:01;50.51;;;22.70;;
60336;SDS011;46978;50.288;28.624;2022-11-15T06:03:03;47.65;;;22.64;;
60336;SDS011;46978;50.288;28.624;2022-11-15T06:04:05;41.14;;;21.59;;
60336;SDS011;46978;50.288;28.624;2022-11-15T06:05:07;46.87;;;21.39;;
60336;SDS011;46978;50.288;28.624;2022-11-15T06:06:09;53.89;;;25.71;;
60336;SDS011;46978;50.288;28.624;2022-11-15T06:07:10;58.54;;;27.82;;
60336;SDS011;46978;50.288;28.624;2022-11-15T06:08:12;53.01;;;25.58;;
60336;SDS011;46978;50.288;28.624;2022-11-15T06:09:14;55.03;;;25.72;;
60336;SDS011;46978;50.288;28.624;2022-11-15T06:10:16;52.22;;;26.67;;
60336;SDS011;46978;50.288;28.624;2022-11-15T06:11:18;50.78;;;26.07;;
60336;SDS011;46978;50.288;28.624;2022-11-15T06:12:20;52.29;;;25.12;;
60336;SDS011;46978;50.288;28.624;2022-11-15T06:13:22;50.62;;;24.37;;
60336;SDS011;46978;50.288;28.624;2022-11-15T06:14:23;51.29;;;23.51;;
60336;SDS011;46978;50.288;28.624;2022-11-15T06:15:25;54.46;;;25.37;;
60336;SDS011;46978;50.288;28.624;2022-11-15T06:16:27;64.11;;;31.65;;
60336;SDS011;46978;50.288;28.624;2022-11-15T06:17:29;67.01;;;32.52;;
60336;SDS011;46978;50.288;28.624;2022-11-15T06:18:32;59.49;;;29.11;;
60336;SDS011;46978;50.288;28.624;2022-11-15T06:19:34;57.45;;;28.59;;
60336;SDS011;46978;50.288;28.624;2022-11-15T06:20:36;47.83;;;25.04;;
60336;SDS011;46978;50.288;28.624;2022-11-15T06:21:38;52.99;;;26.75;;
60336;SDS011;46978;50.288;28.624;2022-11-15T06:22:40;53.51;;;24.99;;
60336;SDS011;46978;50.288;28.624;2022-11-15T06:23:41;54.70;;;27.11;;
60336;SDS011;46978;50.288;28.624;2022-11-15T06:24:43;51.78;;;23.81;;
60336;SDS011;46978;50.288;28.624;2022-11-15T06:25:44;46.59;;;22.99;;
60336;SDS011;46978;50.288;28.624;2022-11-15T06:26:46;46.32;;;22.67;;
60336;SDS011;46978;50.288;28.624;2022-11-15T06:27:56;45.47;;;23.17;;
60336;SDS011;46978;50.288;28.624;2022-11-15T06:28:55;47.42;;;23.22;;
60336;SDS011;46978;50.288;28.624;2022-11-15T06:30:02;45.45;;;21.65;;
60336;SDS011;46978;50.288;28.624;2022-11-15T06:31:11;44.26;;;22.13;;
60336;SDS011;46978;50.288;28.624;2022-11-15T06:32:13;48.51;;;22.16;;
60336;SDS011;46978;50.288;28.624;2022-11-15T06:33:14;44.04;;;21.98;;
60336;SDS011;46978;50.288;28.624;2022-11-15T06:34:16;48.29;;;22.56;;
60336;SDS011;46978;50.288;28.624;2022-11-15T06:35:18;58.93;;;26.54;;